createdAt,value
2022-08-14T00:01:11.537Z,7.07
2022-08-14T00:03:41.214Z,6.53
2022-08-14T00:06:14.065Z,5.87
2022-08-14T00:08:53.803Z,5.50
2022-08-14T00:11:21.387Z,5.47
2022-08-14T00:13:52.752Z,6.53
2022-08-14T00:16:40.441Z,6.73
2022-08-14T00:19:19.139Z,5.90
2022-08-14T00:21:47.758Z,5.87
2022-08-14T00:24:23.165Z,5.70
2022-08-14T00:26:56.846Z,5.77
2022-08-14T00:29:27.285Z,5.90
2022-08-14T00:31:56.358Z,6.00
2022-08-14T00:34:36.776Z,5.97
2022-08-14T00:37:13.427Z,4.90
2022-08-14T00:39:41.179Z,6.10
2022-08-14T00:42:52.597Z,6.40
2022-08-14T00:44:59.481Z,5.60
2022-08-14T00:47:28.441Z,5.87
2022-08-14T00:49:57.620Z,6.30
2022-08-14T00:52:26.851Z,6.00
2022-08-14T00:54:58.026Z,5.03
2022-08-14T00:57:27.883Z,5.43
2022-08-14T00:59:57.309Z,5.57
2022-08-14T01:02:28.311Z,6.13
2022-08-14T01:05:00.747Z,6.53
2022-08-14T01:07:38.689Z,6.50
2022-08-14T01:10:15.555Z,5.03
2022-08-14T01:12:44.091Z,6.80
2022-08-14T01:15:16.657Z,6.13
2022-08-14T01:18:03.074Z,6.77
2022-08-14T01:21:05.018Z,6.87
2022-08-14T01:23:46.469Z,6.43
2022-08-14T01:26:34.419Z,6.10
2022-08-14T01:29:06.347Z,6.33
2022-08-14T01:31:37.140Z,6.23
2022-08-14T01:35:20.920Z,6.03
2022-08-14T01:36:55.084Z,6.40
2022-08-14T01:39:24.669Z,6.83
2022-08-14T01:41:58.290Z,5.87
2022-08-14T01:44:32.648Z,6.03
2022-08-14T01:47:21.782Z,5.20
2022-08-14T01:49:59.425Z,6.80
2022-08-14T01:52:33.991Z,5.20
2022-08-14T01:55:22.004Z,6.63
2022-08-14T01:58:01.824Z,6.57
2022-08-14T02:00:39.224Z,5.80
2022-08-14T02:03:08.206Z,5.90
2022-08-14T02:05:38.441Z,5.93
2022-08-14T02:08:09.791Z,6.17
2022-08-14T02:10:46.776Z,6.03
2022-08-14T02:13:16.023Z,6.20
2022-08-14T02:15:44.174Z,7.00
2022-08-14T02:18:15.341Z,7.17
2022-08-14T02:20:43.096Z,5.80
2022-08-14T02:23:11.609Z,6.53
2022-08-14T02:25:40.567Z,6.50
2022-08-14T02:28:23.109Z,6.90
2022-08-14T02:30:56.103Z,6.50
2022-08-14T02:33:24.289Z,6.73
2022-08-14T02:36:04.990Z,5.83
2022-08-14T02:38:44.762Z,5.13
2022-08-14T02:41:17.424Z,6.10
2022-08-14T02:43:48.662Z,6.07
2022-08-14T02:46:20.506Z,6.30
2022-08-14T02:49:03.797Z,5.80
2022-08-14T02:51:33.873Z,7.37
2022-08-14T02:54:03.669Z,5.90
2022-08-14T02:57:16.316Z,6.00
2022-08-14T02:59:33.621Z,6.00
2022-08-14T03:02:02.978Z,6.17
2022-08-14T03:04:30.794Z,6.87
2022-08-14T03:07:07.785Z,5.23
2022-08-14T03:10:26.999Z,6.30
2022-08-14T03:12:31.092Z,6.47
2022-08-14T03:15:00.594Z,6.60
2022-08-14T03:17:31.602Z,6.50
2022-08-14T03:20:11.139Z,7.40
2022-08-14T03:22:41.991Z,6.40
2022-08-14T03:25:12.059Z,6.80
2022-08-14T03:27:47.720Z,6.37
2022-08-14T03:30:15.816Z,7.83
2022-08-14T03:32:51.475Z,6.87
2022-08-14T03:35:19.728Z,6.10
2022-08-14T03:39:12.156Z,6.43
2022-08-14T03:40:35.043Z,6.50
2022-08-14T03:43:05.765Z,6.07
2022-08-14T03:45:35.789Z,6.80
2022-08-14T03:48:11.047Z,7.70
2022-08-14T03:50:52.979Z,6.83
2022-08-14T03:53:23.817Z,6.80
2022-08-14T03:55:52.421Z,6.63
2022-08-14T03:58:23.732Z,6.70
2022-08-14T04:01:03.079Z,6.30
2022-08-14T04:03:30.592Z,6.97
2022-08-14T04:05:58.107Z,6.70
2022-08-14T04:08:31.066Z,7.07
2022-08-14T04:11:01.182Z,7.47
2022-08-14T04:13:34.010Z,7.70
2022-08-14T04:16:05.371Z,6.80
2022-08-14T04:18:40.789Z,6.00
2022-08-14T04:21:10.324Z,8.30
2022-08-14T04:23:38.789Z,7.40
2022-08-14T04:26:15.051Z,7.47
2022-08-14T04:29:07.269Z,7.67
2022-08-14T04:33:01.661Z,7.47
2022-08-14T04:34:30.241Z,7.53
2022-08-14T04:37:22.174Z,7.43
2022-08-14T04:40:12.003Z,6.23
2022-08-14T04:42:57.667Z,7.47
2022-08-14T04:45:32.639Z,8.73
2022-08-14T04:48:39.769Z,7.90
2022-08-14T04:51:04.605Z,7.70
2022-08-14T04:53:35.293Z,8.17
2022-08-14T04:56:10.852Z,7.00
2022-08-14T04:58:57.566Z,6.60
2022-08-14T05:01:27.892Z,7.43
2022-08-14T05:03:55.971Z,8.10
2022-08-14T05:06:37.273Z,7.00
2022-08-14T05:09:07.213Z,8.20
2022-08-14T05:11:38.221Z,6.97
2022-08-14T05:14:34.612Z,8.60
2022-08-14T05:16:59.232Z,7.07
2022-08-14T05:19:29.475Z,7.83
2022-08-14T05:22:17.123Z,7.50
2022-08-14T05:24:48.767Z,8.63
2022-08-14T05:27:22.729Z,8.30
2022-08-14T05:29:52.977Z,8.23
2022-08-14T05:32:23.315Z,7.93
2022-08-14T05:34:58.141Z,8.40
2022-08-14T05:37:26.626Z,8.70
2022-08-14T05:39:54.888Z,7.70
2022-08-14T05:42:27.115Z,8.60
2022-08-14T05:44:59.576Z,7.97
2022-08-14T05:47:34.170Z,8.23
2022-08-14T05:50:17.603Z,8.40
2022-08-14T05:52:49.046Z,7.67
2022-08-14T05:55:16.989Z,7.23
2022-08-14T05:57:54.861Z,7.83
2022-08-14T06:00:28.525Z,8.40
2022-08-14T06:03:00.539Z,7.73
2022-08-14T06:05:32.254Z,7.50
2022-08-14T06:08:08.651Z,9.80
2022-08-14T06:10:51.899Z,7.20
2022-08-14T06:13:20.338Z,8.47
2022-08-14T06:15:49.276Z,7.97
2022-08-14T06:18:19.187Z,7.87
2022-08-14T06:20:46.911Z,7.40
2022-08-14T06:23:14.575Z,7.67
2022-08-14T06:25:42.175Z,7.73
2022-08-14T06:28:27.430Z,7.80
2022-08-14T06:30:55.783Z,7.40
2022-08-14T06:33:30.218Z,8.20
2022-08-14T06:36:12.724Z,8.30
2022-08-14T06:38:46.149Z,8.90
2022-08-14T06:41:20.632Z,7.83
2022-08-14T06:43:49.181Z,8.50
2022-08-14T06:46:32.514Z,8.40
2022-08-14T06:49:03.655Z,8.10
2022-08-14T06:51:38.482Z,7.90
2022-08-14T06:54:06.860Z,7.43
2022-08-14T06:56:36.061Z,8.77
2022-08-14T06:59:06.149Z,8.03
2022-08-14T07:02:06.267Z,7.50
2022-08-14T07:05:00.504Z,8.03
2022-08-14T07:07:39.336Z,7.10
2022-08-14T07:10:07.622Z,7.70
2022-08-14T07:13:01.843Z,8.87
2022-08-14T07:15:28.618Z,7.70
2022-08-14T07:17:57.145Z,8.00
2022-08-14T07:20:30.893Z,8.10
2022-08-14T07:23:05.340Z,7.60
2022-08-14T07:25:37.701Z,7.40
2022-08-14T07:28:12.896Z,8.10
2022-08-14T07:30:51.271Z,6.67
2022-08-14T07:33:24.601Z,7.20
2022-08-14T07:36:00.519Z,7.03
2022-08-14T07:38:33.917Z,7.70
2022-08-14T07:41:11.712Z,8.57
2022-08-14T07:43:47.332Z,8.70
2022-08-14T07:46:16.181Z,7.50
2022-08-14T07:48:49.056Z,8.57
2022-08-14T07:51:22.039Z,8.10
2022-08-14T07:53:50.161Z,10.30
2022-08-14T07:56:44.125Z,11.13
2022-08-14T07:59:12.713Z,9.93
2022-08-14T08:01:48.200Z,8.20
2022-08-14T08:04:24.535Z,7.87
2022-08-14T08:06:55.017Z,8.40
2022-08-14T08:09:32.165Z,8.20
2022-08-14T08:12:04.556Z,8.57
2022-08-14T08:14:34.526Z,8.40
2022-08-14T08:17:24.354Z,8.80
2022-08-14T08:19:52.478Z,8.37
2022-08-14T08:22:23.691Z,8.00
2022-08-14T08:24:54.876Z,8.70
2022-08-14T08:27:25.521Z,9.00
2022-08-14T08:29:53.072Z,8.77
2022-08-14T08:32:22.430Z,8.20
2022-08-14T08:34:57.602Z,8.40
2022-08-14T08:37:30.753Z,8.30
2022-08-14T08:40:08.444Z,7.63
2022-08-14T08:42:38.685Z,8.27
2022-08-14T08:45:12.212Z,8.93
2022-08-14T08:47:40.812Z,8.53
2022-08-14T08:50:31.160Z,8.10
2022-08-14T08:53:02.622Z,8.37
2022-08-14T08:55:34.069Z,8.53
2022-08-14T08:58:05.219Z,7.50
2022-08-14T09:00:36.264Z,8.83
2022-08-14T09:03:07.427Z,7.93
2022-08-14T09:05:39.423Z,7.20
2022-08-14T09:08:30.377Z,9.47
2022-08-14T09:11:02.491Z,8.10
2022-08-14T09:13:46.509Z,7.40
2022-08-14T09:16:18.548Z,7.40
2022-08-14T09:18:47.775Z,7.80
2022-08-14T09:21:16.171Z,7.37
2022-08-14T09:24:26.571Z,7.27
2022-08-14T09:26:34.244Z,7.27
2022-08-14T09:29:03.003Z,8.13
2022-08-14T09:31:43.001Z,7.00
2022-08-14T09:34:32.510Z,7.23
2022-08-14T09:37:17.815Z,8.13
2022-08-14T09:40:02.293Z,7.10
2022-08-14T09:42:45.204Z,8.00
2022-08-14T09:45:19.973Z,7.97
2022-08-14T09:47:51.844Z,7.00
2022-08-14T09:50:25.727Z,7.47
2022-08-14T09:52:57.457Z,7.87
2022-08-14T09:55:41.267Z,6.93
2022-08-14T09:58:14.926Z,6.90
2022-08-14T10:00:49.538Z,7.40
2022-08-14T10:03:30.191Z,7.10
2022-08-14T10:06:09.272Z,8.17
2022-08-14T10:08:50.919Z,7.70
2022-08-14T10:11:23.967Z,6.93
2022-08-14T10:13:55.948Z,7.20
2022-08-14T10:16:27.138Z,6.80
2022-08-14T10:19:07.360Z,7.07
2022-08-14T10:21:38.730Z,7.00
2022-08-14T10:24:36.331Z,7.20
2022-08-14T10:27:16.288Z,8.13
2022-08-14T10:29:48.312Z,7.67
2022-08-14T10:32:18.334Z,8.00
2022-08-14T10:35:13.269Z,7.10
2022-08-14T10:37:44.272Z,7.50
2022-08-14T10:40:37.748Z,7.30
2022-08-14T10:43:04.290Z,6.80
2022-08-14T10:45:35.771Z,7.80
2022-08-14T10:48:23.547Z,6.90
2022-08-14T10:51:04.859Z,7.27
2022-08-14T10:53:40.096Z,6.57
2022-08-14T10:56:22.085Z,7.40
2022-08-14T10:59:03.853Z,7.77
2022-08-14T11:01:32.641Z,6.90
2022-08-14T11:04:25.940Z,7.30
2022-08-14T11:06:56.329Z,6.97
2022-08-14T11:09:26.463Z,7.73
2022-08-14T11:12:36.016Z,7.20
2022-08-14T11:14:56.325Z,6.93
2022-08-14T11:17:28.582Z,8.10
2022-08-14T11:20:02.721Z,8.03
2022-08-14T11:22:56.320Z,7.60
2022-08-14T11:25:23.356Z,8.13
2022-08-14T11:27:53.206Z,6.73
2022-08-14T11:30:51.588Z,5.77
2022-08-14T11:33:13.480Z,6.80
2022-08-14T11:35:49.518Z,6.33
2022-08-14T11:38:19.934Z,7.50
2022-08-14T11:40:48.494Z,5.97
2022-08-14T11:43:16.589Z,6.07
2022-08-14T11:45:49.609Z,6.03
2022-08-14T11:49:04.048Z,6.40
2022-08-14T11:51:14.371Z,6.40
2022-08-14T11:53:45.898Z,6.43
2022-08-14T11:56:13.611Z,7.43
2022-08-14T11:58:41.116Z,6.93
2022-08-14T12:01:11.340Z,6.47
2022-08-14T12:03:52.411Z,6.30
2022-08-14T12:06:28.663Z,6.73
2022-08-14T12:09:08.360Z,7.30
2022-08-14T12:11:43.439Z,5.53
2022-08-14T12:14:30.950Z,6.43
2022-08-14T12:17:12.504Z,6.10
2022-08-14T12:19:50.614Z,6.60
2022-08-14T12:22:29.833Z,6.07
2022-08-14T12:24:58.397Z,6.90
2022-08-14T12:27:41.617Z,6.07
2022-08-14T12:30:38.148Z,6.33
2022-08-14T12:33:25.590Z,5.97
2022-08-14T12:35:57.691Z,6.47
2022-08-14T12:38:36.496Z,5.80
2022-08-14T12:41:10.486Z,6.07
2022-08-14T12:43:47.967Z,6.57
2022-08-14T12:46:27.287Z,7.53
2022-08-14T12:48:59.915Z,7.00
2022-08-14T12:51:30.905Z,6.80
2022-08-14T12:54:00.264Z,7.90
2022-08-14T12:56:32.757Z,6.10
2022-08-14T12:59:01.222Z,7.00
2022-08-14T13:02:01.981Z,5.73
2022-08-14T13:04:23.025Z,5.87
2022-08-14T13:06:51.768Z,5.93
2022-08-14T13:09:20.882Z,7.00
2022-08-14T13:11:59.165Z,6.97
2022-08-14T13:14:48.269Z,6.90
2022-08-14T13:17:17.080Z,6.13
2022-08-14T13:19:46.434Z,6.93
2022-08-14T13:22:19.515Z,7.03
2022-08-14T13:25:00.390Z,6.33
2022-08-14T13:27:30.344Z,6.87
2022-08-14T13:30:03.884Z,6.57
2022-08-14T13:32:40.656Z,8.07
2022-08-14T13:35:11.078Z,6.30
2022-08-14T13:37:45.330Z,6.70
2022-08-14T13:40:15.269Z,7.43
2022-08-14T13:42:45.177Z,7.00
2022-08-14T13:45:15.978Z,6.60
2022-08-14T13:47:46.526Z,7.37
2022-08-14T13:50:20.395Z,6.63
2022-08-14T13:52:54.752Z,6.60
2022-08-14T13:55:29.317Z,7.37
2022-08-14T13:58:04.034Z,6.93
2022-08-14T14:00:36.081Z,6.03
2022-08-14T14:03:22.666Z,7.37
2022-08-14T14:05:55.019Z,6.57
2022-08-14T14:08:45.650Z,6.77
2022-08-14T14:11:13.238Z,7.10
2022-08-14T14:13:45.238Z,7.17
2022-08-14T14:16:25.933Z,7.30
2022-08-14T14:19:06.747Z,6.53
2022-08-14T14:21:40.883Z,6.40
2022-08-14T14:24:15.049Z,7.63
2022-08-14T14:26:46.460Z,7.20
2022-08-14T14:29:14.743Z,6.20
2022-08-14T14:31:48.365Z,7.87
2022-08-14T14:34:29.659Z,7.20
2022-08-14T14:37:03.394Z,6.83
2022-08-14T14:39:37.711Z,6.57
2022-08-14T14:42:08.080Z,6.27
2022-08-14T14:44:41.239Z,6.50
2022-08-14T14:47:10.819Z,6.63
2022-08-14T14:49:51.492Z,7.07
2022-08-14T14:52:27.481Z,7.43
2022-08-14T14:54:56.442Z,6.20
2022-08-14T14:57:30.355Z,6.90
2022-08-14T15:00:06.125Z,7.53
2022-08-14T15:02:40.360Z,6.00
2022-08-14T15:05:12.725Z,6.50
2022-08-14T15:07:42.582Z,7.57
2022-08-14T15:10:27.843Z,6.67
2022-08-14T15:13:04.043Z,6.20
2022-08-14T15:15:33.106Z,5.87
2022-08-14T15:18:01.517Z,6.53
2022-08-14T15:20:30.503Z,5.80
2022-08-14T15:23:12.034Z,7.20
2022-08-14T15:25:40.435Z,6.23
2022-08-14T15:28:13.093Z,6.70
2022-08-14T15:30:51.197Z,7.10
2022-08-14T15:34:13.346Z,6.53
2022-08-14T15:36:29.418Z,7.60
2022-08-14T15:38:59.453Z,7.53
2022-08-14T15:41:27.467Z,7.07
2022-08-14T15:44:25.173Z,7.30
2022-08-14T15:46:55.490Z,6.43
2022-08-14T15:49:33.237Z,6.57
2022-08-14T15:52:03.172Z,6.90
2022-08-14T15:54:32.645Z,6.90
2022-08-14T15:57:02.111Z,7.97
2022-08-14T15:59:53.924Z,7.70
2022-08-14T16:02:21.707Z,7.37
2022-08-14T16:04:55.187Z,7.53
2022-08-14T16:07:25.357Z,7.63
2022-08-14T16:10:27.866Z,7.10
2022-08-14T16:12:47.445Z,7.83
2022-08-14T16:15:16.937Z,7.20
2022-08-14T16:17:45.652Z,7.57
2022-08-14T16:20:41.151Z,7.37
2022-08-14T16:23:11.692Z,7.27
2022-08-14T16:25:43.735Z,8.90
2022-08-14T16:28:13.402Z,7.93
2022-08-14T16:30:56.123Z,7.30
2022-08-14T16:33:56.405Z,6.87
2022-08-14T16:36:30.399Z,6.60
2022-08-14T16:39:01.802Z,6.93
2022-08-14T16:41:31.263Z,8.37
2022-08-14T16:44:02.238Z,7.93
2022-08-14T16:46:37.248Z,6.60
2022-08-14T16:49:08.423Z,6.50
2022-08-14T16:51:38.924Z,7.53
2022-08-14T16:54:20.789Z,8.13
2022-08-14T16:57:13.124Z,7.90
2022-08-14T16:59:51.823Z,7.97
2022-08-14T17:02:34.927Z,7.13
2022-08-14T17:05:20.843Z,7.50
2022-08-14T17:08:41.585Z,7.13
2022-08-14T17:11:04.901Z,6.70
2022-08-14T17:13:58.267Z,7.00
2022-08-14T17:16:35.514Z,7.37
2022-08-14T17:19:04.795Z,6.80
2022-08-14T17:21:37.267Z,6.70
2022-08-14T17:24:56.697Z,7.47
2022-08-14T17:26:55.943Z,7.10
2022-08-14T17:29:29.394Z,7.40
2022-08-14T17:32:02.194Z,7.13
2022-08-14T17:34:47.430Z,6.67
2022-08-14T17:37:27.802Z,6.83
2022-08-14T17:40:15.034Z,6.60
2022-08-14T17:42:55.692Z,7.33
2022-08-14T17:45:45.317Z,7.20
2022-08-14T17:49:14.229Z,6.70
2022-08-14T17:51:23.773Z,6.50
2022-08-14T17:54:01.446Z,7.40
2022-08-14T17:56:32.130Z,7.13
2022-08-14T17:59:04.047Z,6.20
2022-08-14T18:01:37.339Z,7.27
2022-08-14T18:04:24.909Z,7.17
2022-08-14T18:06:57.908Z,6.03
2022-08-14T18:09:37.213Z,7.83
2022-08-14T18:12:11.883Z,13.00
2022-08-14T18:15:06.707Z,8.20
2022-08-14T18:17:53.080Z,7.33
2022-08-14T18:21:23.757Z,7.73
2022-08-14T18:23:14.451Z,8.27
2022-08-14T18:25:49.120Z,7.27
2022-08-14T18:28:51.619Z,8.73
2022-08-14T18:31:43.763Z,7.27
2022-08-14T18:34:31.741Z,7.50
2022-08-14T18:37:18.376Z,8.03
2022-08-14T18:40:01.224Z,7.30
2022-08-14T18:42:44.127Z,7.40
2022-08-14T18:45:16.096Z,8.30
2022-08-14T18:48:14.842Z,7.87
2022-08-14T18:50:52.761Z,7.13
2022-08-14T18:53:24.648Z,7.90
2022-08-14T18:55:55.593Z,7.90
2022-08-14T18:58:34.428Z,8.20
2022-08-14T19:01:09.091Z,7.33
2022-08-14T19:03:57.484Z,7.60
2022-08-14T19:07:16.303Z,7.73
2022-08-14T19:09:56.275Z,8.00
2022-08-14T19:13:00.358Z,8.17
2022-08-14T19:15:29.628Z,8.20
2022-08-14T19:18:10.960Z,8.23
2022-08-14T19:20:49.014Z,9.00
2022-08-14T19:23:43.813Z,9.33
2022-08-14T19:26:33.629Z,9.73
2022-08-14T19:29:20.824Z,8.80
2022-08-14T19:31:55.071Z,8.60
2022-08-14T19:34:37.467Z,8.70
2022-08-14T19:37:10.374Z,8.73
2022-08-14T19:39:53.866Z,8.47
2022-08-14T19:42:28.209Z,9.17
2022-08-14T19:44:58.894Z,7.80
2022-08-14T19:47:38.697Z,7.63
2022-08-14T19:50:37.897Z,8.57
2022-08-14T19:53:11.032Z,8.70
2022-08-14T19:55:45.520Z,8.53
2022-08-14T19:58:14.015Z,8.30
2022-08-14T20:00:52.863Z,7.80
2022-08-14T20:03:24.101Z,9.00
2022-08-14T20:06:03.085Z,8.60
2022-08-14T20:10:59.378Z,9.00
2022-08-14T20:12:00.963Z,7.90
2022-08-14T20:14:20.959Z,8.10
2022-08-14T20:17:05.693Z,8.30
2022-08-14T20:19:37.888Z,7.97
2022-08-14T20:22:36.444Z,8.47
2022-08-14T20:25:15.252Z,7.97
2022-08-14T20:27:49.643Z,8.67
2022-08-14T20:30:33.905Z,8.80
2022-08-14T20:33:10.678Z,9.20
2022-08-14T20:35:43.105Z,8.03
2022-08-14T20:38:29.116Z,8.90
2022-08-14T20:41:01.727Z,9.27
2022-08-14T20:43:54.951Z,7.80
2022-08-14T20:46:31.080Z,8.47
2022-08-14T20:49:01.093Z,9.00
2022-08-14T20:51:36.640Z,9.10
2022-08-14T20:54:07.134Z,9.10
2022-08-14T20:56:37.166Z,8.33
2022-08-14T20:59:17.445Z,9.17
2022-08-14T21:01:51.567Z,8.07
2022-08-14T21:04:27.043Z,8.13
2022-08-14T21:07:25.798Z,9.00
2022-08-14T21:10:06.308Z,8.77
2022-08-14T21:12:35.776Z,8.80
2022-08-14T21:15:10.244Z,8.40
2022-08-14T21:17:47.245Z,8.73
2022-08-14T21:20:25.768Z,8.17
2022-08-14T21:23:01.185Z,8.00
2022-08-14T21:25:31.454Z,8.43
2022-08-14T21:28:03.197Z,8.30
2022-08-14T21:30:51.067Z,9.10
2022-08-14T21:33:22.554Z,8.70
2022-08-14T21:35:54.720Z,8.73
2022-08-14T21:38:33.903Z,8.30
2022-08-14T21:41:49.972Z,8.13
2022-08-14T21:44:18.371Z,8.20
2022-08-14T21:46:50.669Z,8.70
2022-08-14T21:49:22.394Z,8.40
2022-08-14T21:51:59.885Z,8.20
2022-08-14T21:54:49.537Z,8.03
2022-08-14T21:57:56.021Z,7.57
2022-08-14T22:00:30.571Z,8.10
2022-08-14T22:03:03.565Z,8.20
2022-08-14T22:05:32.977Z,8.77
2022-08-14T22:08:02.644Z,7.70
2022-08-14T22:10:30.749Z,8.40
2022-08-14T22:13:01.670Z,7.67
2022-08-14T22:15:30.407Z,9.00
2022-08-14T22:17:58.273Z,7.40
2022-08-14T22:20:28.130Z,8.13
2022-08-14T22:22:58.466Z,8.60
2022-08-14T22:25:31.978Z,8.67
2022-08-14T22:28:01.319Z,7.57
2022-08-14T22:30:28.840Z,7.20
2022-08-14T22:32:58.416Z,9.03
2022-08-14T22:35:29.344Z,8.97
2022-08-14T22:38:32.651Z,7.60
2022-08-14T22:41:08.462Z,9.20
2022-08-14T22:43:37.171Z,7.80
2022-08-14T22:46:14.526Z,8.30
2022-08-14T22:48:45.000Z,8.03
2022-08-14T22:51:13.703Z,9.30
2022-08-14T22:53:44.065Z,8.40
2022-08-14T22:56:21.294Z,8.40
2022-08-14T22:58:54.217Z,8.40
2022-08-14T23:01:25.385Z,8.50
2022-08-14T23:04:13.216Z,9.37
2022-08-14T23:07:04.808Z,8.67
2022-08-14T23:09:38.163Z,8.07
2022-08-14T23:12:27.682Z,8.67
2022-08-14T23:14:57.176Z,9.90
2022-08-14T23:17:24.955Z,9.17
2022-08-14T23:19:56.186Z,8.43
2022-08-14T23:22:24.194Z,8.63
2022-08-14T23:24:57.740Z,8.50
2022-08-14T23:27:32.011Z,9.00
2022-08-14T23:30:31.737Z,8.53
2022-08-14T23:33:03.788Z,8.63
2022-08-14T23:35:33.256Z,8.27
2022-08-14T23:38:02.746Z,9.33
2022-08-14T23:40:31.978Z,8.70
2022-08-14T23:43:03.158Z,8.23
2022-08-14T23:45:36.780Z,9.53
2022-08-14T23:48:09.967Z,9.20
2022-08-14T23:50:44.322Z,9.13
2022-08-14T23:53:28.596Z,8.40
2022-08-14T23:56:08.279Z,8.47
2022-08-14T23:58:36.845Z,7.73
